sensor_id;sensor_type;location;lat;lon;timestamp;P1;durP1;ratioP1;P2;durP2;ratioP2
53915;SDS011;39827;49.652;18.770;2023-04-24T00:00:02;815.80;;;759.13;;
53915;SDS011;39827;49.652;18.770;2023-04-24T00:02:31;779.83;;;725.42;;
53915;SDS011;39827;49.652;18.770;2023-04-24T00:04:57;825.53;;;768.72;;
53915;SDS011;39827;49.652;18.770;2023-04-24T00:07:27;796.42;;;741.30;;
53915;SDS011;39827;49.652;18.770;2023-04-24T00:09:53;773.55;;;720.75;;
53915;SDS011;39827;49.652;18.770;2023-04-24T00:12:19;734.10;;;683.13;;
53915;SDS011;39827;49.652;18.770;2023-04-24T00:14:45;710.70;;;662.25;;
53915;SDS011;39827;49.652;18.770;2023-04-24T00:17:10;696.03;;;648.45;;
53915;SDS011;39827;49.652;18.770;2023-04-24T00:19:35;767.95;;;714.80;;
53915;SDS011;39827;49.652;18.770;2023-04-24T00:22:01;908.17;;;844.83;;
53915;SDS011;39827;49.652;18.770;2023-04-24T00:24:27;808.35;;;753.03;;
53915;SDS011;39827;49.652;18.770;2023-04-24T00:26:53;790.47;;;736.38;;
53915;SDS011;39827;49.652;18.770;2023-04-24T00:29:18;805.45;;;751.47;;
53915;SDS011;39827;49.652;18.770;2023-04-24T00:31:43;658.28;;;613.88;;
53915;SDS011;39827;49.652;18.770;2023-04-24T00:34:09;687.30;;;641.65;;
53915;SDS011;39827;49.652;18.770;2023-04-24T00:36:35;679.25;;;634.35;;
53915;SDS011;39827;49.652;18.770;2023-04-24T00:39:00;656.95;;;613.72;;
53915;SDS011;39827;49.652;18.770;2023-04-24T00:41:26;697.05;;;650.60;;
53915;SDS011;39827;49.652;18.770;2023-04-24T00:43:52;738.90;;;690.22;;
53915;SDS011;39827;49.652;18.770;2023-04-24T00:46:17;722.50;;;674.67;;
53915;SDS011;39827;49.652;18.770;2023-04-24T00:48:44;793.20;;;740.35;;
53915;SDS011;39827;49.652;18.770;2023-04-24T00:51:10;814.72;;;760.28;;
53915;SDS011;39827;49.652;18.770;2023-04-24T00:53:35;745.53;;;695.95;;
53915;SDS011;39827;49.652;18.770;2023-04-24T00:56:01;606.97;;;567.20;;
53915;SDS011;39827;49.652;18.770;2023-04-24T00:58:27;734.97;;;686.33;;
53915;SDS011;39827;49.652;18.770;2023-04-24T01:00:52;711.55;;;664.15;;
53915;SDS011;39827;49.652;18.770;2023-04-24T01:03:20;712.92;;;666.00;;
53915;SDS011;39827;49.652;18.770;2023-04-24T01:05:50;639.42;;;596.47;;
53915;SDS011;39827;49.652;18.770;2023-04-24T01:08:15;616.22;;;576.08;;
53915;SDS011;39827;49.652;18.770;2023-04-24T01:10:41;670.35;;;625.03;;
53915;SDS011;39827;49.652;18.770;2023-04-24T01:13:09;609.53;;;570.03;;
53915;SDS011;39827;49.652;18.770;2023-04-24T01:15:35;672.22;;;629.17;;
53915;SDS011;39827;49.652;18.770;2023-04-24T01:18:01;657.20;;;614.97;;
53915;SDS011;39827;49.652;18.770;2023-04-24T01:20:27;838.03;;;779.80;;
53915;SDS011;39827;49.652;18.770;2023-04-24T01:22:56;767.17;;;715.83;;
53915;SDS011;39827;49.652;18.770;2023-04-24T01:25:22;907.95;;;838.83;;
53915;SDS011;39827;49.652;18.770;2023-04-24T01:27:49;953.30;;;879.67;;
53915;SDS011;39827;49.652;18.770;2023-04-24T01:30:15;938.28;;;866.72;;
53915;SDS011;39827;49.652;18.770;2023-04-24T01:32:40;897.28;;;832.92;;
53915;SDS011;39827;49.652;18.770;2023-04-24T01:35:09;904.70;;;835.80;;
53915;SDS011;39827;49.652;18.770;2023-04-24T01:37:35;923.30;;;852.83;;
53915;SDS011;39827;49.652;18.770;2023-04-24T01:40:02;925.30;;;855.28;;
53915;SDS011;39827;49.652;18.770;2023-04-24T01:42:28;950.22;;;878.75;;
53915;SDS011;39827;49.652;18.770;2023-04-24T01:44:54;921.97;;;854.17;;
53915;SDS011;39827;49.652;18.770;2023-04-24T01:47:20;944.22;;;872.38;;
53915;SDS011;39827;49.652;18.770;2023-04-24T01:49:45;959.58;;;888.17;;
53915;SDS011;39827;49.652;18.770;2023-04-24T01:52:12;892.95;;;829.45;;
53915;SDS011;39827;49.652;18.770;2023-04-24T01:54:38;928.85;;;860.28;;
53915;SDS011;39827;49.652;18.770;2023-04-24T01:57:03;897.45;;;833.10;;
53915;SDS011;39827;49.652;18.770;2023-04-24T01:59:29;876.97;;;815.53;;
53915;SDS011;39827;49.652;18.770;2023-04-24T02:01:55;720.25;;;671.28;;
53915;SDS011;39827;49.652;18.770;2023-04-24T02:04:21;824.70;;;767.90;;
53915;SDS011;39827;49.652;18.770;2023-04-24T02:06:46;988.50;;;916.42;;
53915;SDS011;39827;49.652;18.770;2023-04-24T02:09:12;788.85;;;735.63;;
53915;SDS011;39827;49.652;18.770;2023-04-24T02:11:37;579.95;;;540.70;;
53915;SDS011;39827;49.652;18.770;2023-04-24T02:14:02;726.30;;;676.72;;
53915;SDS011;39827;49.652;18.770;2023-04-24T02:16:28;867.95;;;808.10;;
53915;SDS011;39827;49.652;18.770;2023-04-24T02:18:58;555.53;;;518.25;;
53915;SDS011;39827;49.652;18.770;2023-04-24T02:21:23;832.50;;;775.90;;
53915;SDS011;39827;49.652;18.770;2023-04-24T02:23:48;848.70;;;790.28;;
53915;SDS011;39827;49.652;18.770;2023-04-24T02:26:14;541.72;;;505.65;;
53915;SDS011;39827;49.652;18.770;2023-04-24T02:28:40;489.63;;;457.17;;
53915;SDS011;39827;49.652;18.770;2023-04-24T02:31:05;549.63;;;512.72;;
53915;SDS011;39827;49.652;18.770;2023-04-24T02:33:31;619.30;;;576.47;;
53915;SDS011;39827;49.652;18.770;2023-04-24T02:35:57;453.25;;;422.75;;
53915;SDS011;39827;49.652;18.770;2023-04-24T02:38:22;453.05;;;422.30;;
53915;SDS011;39827;49.652;18.770;2023-04-24T02:40:47;425.45;;;397.02;;
53915;SDS011;39827;49.652;18.770;2023-04-24T02:43:13;483.33;;;448.58;;
53915;SDS011;39827;49.652;18.770;2023-04-24T02:45:38;496.33;;;462.52;;
53915;SDS011;39827;49.652;18.770;2023-04-24T02:48:04;743.33;;;691.58;;
53915;SDS011;39827;49.652;18.770;2023-04-24T02:50:29;442.15;;;413.05;;
53915;SDS011;39827;49.652;18.770;2023-04-24T02:52:55;551.70;;;513.63;;
53915;SDS011;39827;49.652;18.770;2023-04-24T02:55:20;434.00;;;405.25;;
53915;SDS011;39827;49.652;18.770;2023-04-24T02:57:46;424.45;;;395.60;;
53915;SDS011;39827;49.652;18.770;2023-04-24T03:00:11;424.00;;;395.50;;
53915;SDS011;39827;49.652;18.770;2023-04-24T03:02:38;848.00;;;788.15;;
53915;SDS011;39827;49.652;18.770;2023-04-24T03:05:04;898.80;;;834.83;;
53915;SDS011;39827;49.652;18.770;2023-04-24T03:07:29;858.95;;;798.88;;
53915;SDS011;39827;49.652;18.770;2023-04-24T03:09:56;779.05;;;725.20;;
53915;SDS011;39827;49.652;18.770;2023-04-24T03:12:23;678.55;;;631.67;;
53915;SDS011;39827;49.652;18.770;2023-04-24T03:14:48;560.88;;;522.60;;
53915;SDS011;39827;49.652;18.770;2023-04-24T03:17:14;524.10;;;488.92;;
53915;SDS011;39827;49.652;18.770;2023-04-24T03:19:39;597.25;;;558.58;;
53915;SDS011;39827;49.652;18.770;2023-04-24T03:22:05;561.72;;;525.13;;
53915;SDS011;39827;49.652;18.770;2023-04-24T03:24:31;552.70;;;517.08;;
53915;SDS011;39827;49.652;18.770;2023-04-24T03:26:57;605.55;;;567.15;;
53915;SDS011;39827;49.652;18.770;2023-04-24T03:29:22;574.47;;;537.50;;
53915;SDS011;39827;49.652;18.770;2023-04-24T03:31:48;559.95;;;524.55;;
53915;SDS011;39827;49.652;18.770;2023-04-24T03:34:13;652.63;;;611.20;;
53915;SDS011;39827;49.652;18.770;2023-04-24T03:36:39;569.25;;;533.50;;
53915;SDS011;39827;49.652;18.770;2023-04-24T03:39:04;640.85;;;599.88;;
53915;SDS011;39827;49.652;18.770;2023-04-24T03:41:30;661.08;;;618.80;;
53915;SDS011;39827;49.652;18.770;2023-04-24T03:43:55;634.35;;;594.38;;
53915;SDS011;39827;49.652;18.770;2023-04-24T03:46:21;628.85;;;589.22;;
53915;SDS011;39827;49.652;18.770;2023-04-24T03:48:46;627.28;;;587.90;;
53915;SDS011;39827;49.652;18.770;2023-04-24T03:51:12;590.25;;;552.92;;
53915;SDS011;39827;49.652;18.770;2023-04-24T03:53:37;668.40;;;625.47;;
53915;SDS011;39827;49.652;18.770;2023-04-24T03:56:02;517.08;;;484.67;;
53915;SDS011;39827;49.652;18.770;2023-04-24T03:58:28;612.53;;;573.58;;
53915;SDS011;39827;49.652;18.770;2023-04-24T04:00:53;634.72;;;594.45;;
53915;SDS011;39827;49.652;18.770;2023-04-24T04:03:19;574.05;;;538.10;;
53915;SDS011;39827;49.652;18.770;2023-04-24T04:05:44;665.00;;;622.70;;
53915;SDS011;39827;49.652;18.770;2023-04-24T04:08:10;679.15;;;635.47;;
53915;SDS011;39827;49.652;18.770;2023-04-24T04:10:35;581.58;;;545.28;;
53915;SDS011;39827;49.652;18.770;2023-04-24T04:13:00;647.10;;;605.20;;
53915;SDS011;39827;49.652;18.770;2023-04-24T04:15:26;637.63;;;596.08;;
53915;SDS011;39827;49.652;18.770;2023-04-24T04:17:51;630.10;;;589.13;;
53915;SDS011;39827;49.652;18.770;2023-04-24T04:20:17;617.45;;;577.33;;
53915;SDS011;39827;49.652;18.770;2023-04-24T04:22:42;620.75;;;580.85;;
53915;SDS011;39827;49.652;18.770;2023-04-24T04:25:08;667.15;;;623.90;;
53915;SDS011;39827;49.652;18.770;2023-04-24T04:27:33;614.28;;;575.25;;
53915;SDS011;39827;49.652;18.770;2023-04-24T04:29:59;626.30;;;586.10;;
53915;SDS011;39827;49.652;18.770;2023-04-24T04:32:30;638.78;;;597.25;;
53915;SDS011;39827;49.652;18.770;2023-04-24T04:34:59;680.78;;;636.75;;
53915;SDS011;39827;49.652;18.770;2023-04-24T04:37:28;573.78;;;537.25;;
53915;SDS011;39827;49.652;18.770;2023-04-24T04:39:58;629.70;;;589.55;;
53915;SDS011;39827;49.652;18.770;2023-04-24T04:42:24;663.35;;;619.65;;
53915;SDS011;39827;49.652;18.770;2023-04-24T04:44:50;615.42;;;575.38;;
53915;SDS011;39827;49.652;18.770;2023-04-24T04:47:16;595.72;;;557.45;;
53915;SDS011;39827;49.652;18.770;2023-04-24T04:49:42;523.10;;;490.48;;
53915;SDS011;39827;49.652;18.770;2023-04-24T04:52:08;662.40;;;619.42;;
53915;SDS011;39827;49.652;18.770;2023-04-24T04:54:34;625.38;;;584.97;;
53915;SDS011;39827;49.652;18.770;2023-04-24T04:56:59;562.80;;;526.90;;
53915;SDS011;39827;49.652;18.770;2023-04-24T04:59:25;523.90;;;491.38;;
53915;SDS011;39827;49.652;18.770;2023-04-24T05:01:51;526.50;;;492.83;;
53915;SDS011;39827;49.652;18.770;2023-04-24T05:04:17;559.83;;;524.38;;
53915;SDS011;39827;49.652;18.770;2023-04-24T05:06:42;614.92;;;575.10;;
53915;SDS011;39827;49.652;18.770;2023-04-24T05:09:08;528.90;;;496.15;;
53915;SDS011;39827;49.652;18.770;2023-04-24T05:11:33;525.05;;;491.50;;
53915;SDS011;39827;49.652;18.770;2023-04-24T05:13:58;592.55;;;554.83;;
53915;SDS011;39827;49.652;18.770;2023-04-24T05:16:24;579.88;;;542.95;;
53915;SDS011;39827;49.652;18.770;2023-04-24T05:18:49;588.78;;;551.80;;
53915;SDS011;39827;49.652;18.770;2023-04-24T05:21:15;547.13;;;512.45;;
53915;SDS011;39827;49.652;18.770;2023-04-24T05:23:40;583.40;;;546.10;;
53915;SDS011;39827;49.652;18.770;2023-04-24T05:26:06;607.40;;;567.83;;
53915;SDS011;39827;49.652;18.770;2023-04-24T05:28:31;512.88;;;480.58;;
53915;SDS011;39827;49.652;18.770;2023-04-24T05:30:57;490.70;;;460.08;;
53915;SDS011;39827;49.652;18.770;2023-04-24T05:33:24;540.97;;;505.95;;
53915;SDS011;39827;49.652;18.770;2023-04-24T05:35:50;534.45;;;500.45;;
53915;SDS011;39827;49.652;18.770;2023-04-24T05:38:15;511.60;;;479.05;;
53915;SDS011;39827;49.652;18.770;2023-04-24T05:40:42;516.42;;;483.80;;
53915;SDS011;39827;49.652;18.770;2023-04-24T05:43:08;539.03;;;504.20;;
53915;SDS011;39827;49.652;18.770;2023-04-24T05:45:33;560.83;;;524.53;;
53915;SDS011;39827;49.652;18.770;2023-04-24T05:48:01;485.17;;;454.67;;
53915;SDS011;39827;49.652;18.770;2023-04-24T05:50:26;464.98;;;435.55;;
53915;SDS011;39827;49.652;18.770;2023-04-24T05:52:52;500.17;;;468.35;;
53915;SDS011;39827;49.652;18.770;2023-04-24T05:55:20;576.45;;;537.30;;
53915;SDS011;39827;49.652;18.770;2023-04-24T05:57:45;425.35;;;398.48;;
53915;SDS011;39827;49.652;18.770;2023-04-24T06:00:11;472.13;;;441.70;;
53915;SDS011;39827;49.652;18.770;2023-04-24T06:02:37;457.42;;;427.67;;
53915;SDS011;39827;49.652;18.770;2023-04-24T06:05:04;498.08;;;465.67;;
53915;SDS011;39827;49.652;18.770;2023-04-24T06:07:30;482.20;;;449.85;;
53915;SDS011;39827;49.652;18.770;2023-04-24T06:09:56;559.83;;;520.90;;
53915;SDS011;39827;49.652;18.770;2023-04-24T06:12:22;511.23;;;475.65;;
53915;SDS011;39827;49.652;18.770;2023-04-24T06:14:47;377.23;;;352.52;;
53915;SDS011;39827;49.652;18.770;2023-04-24T06:17:13;503.15;;;469.30;;
53915;SDS011;39827;49.652;18.770;2023-04-24T06:19:38;503.48;;;468.35;;
53915;SDS011;39827;49.652;18.770;2023-04-24T06:22:04;498.73;;;464.92;;
53915;SDS011;39827;49.652;18.770;2023-04-24T06:24:29;523.85;;;488.15;;
53915;SDS011;39827;49.652;18.770;2023-04-24T06:26:55;510.88;;;475.83;;
53915;SDS011;39827;49.652;18.770;2023-04-24T06:29:22;486.23;;;453.30;;
53915;SDS011;39827;49.652;18.770;2023-04-24T06:31:47;475.80;;;443.50;;
53915;SDS011;39827;49.652;18.770;2023-04-24T06:34:13;482.45;;;449.00;;
53915;SDS011;39827;49.652;18.770;2023-04-24T06:36:38;437.98;;;408.42;;
53915;SDS011;39827;49.652;18.770;2023-04-24T06:39:04;417.55;;;388.27;;
53915;SDS011;39827;49.652;18.770;2023-04-24T06:41:29;152.50;;;143.38;;
53915;SDS011;39827;49.652;18.770;2023-04-24T06:43:55;156.80;;;147.00;;
53915;SDS011;39827;49.652;18.770;2023-04-24T06:46:20;173.05;;;162.77;;
53915;SDS011;39827;49.652;18.770;2023-04-24T06:48:51;200.77;;;188.60;;
53915;SDS011;39827;49.652;18.770;2023-04-24T06:51:17;158.57;;;148.40;;
53915;SDS011;39827;49.652;18.770;2023-04-24T06:53:43;246.48;;;231.57;;
53915;SDS011;39827;49.652;18.770;2023-04-24T06:56:08;246.15;;;231.32;;
53915;SDS011;39827;49.652;18.770;2023-04-24T06:58:34;284.65;;;267.10;;
53915;SDS011;39827;49.652;18.770;2023-04-24T07:00:59;343.33;;;320.35;;
53915;SDS011;39827;49.652;18.770;2023-04-24T07:03:25;539.35;;;501.45;;
53915;SDS011;39827;49.652;18.770;2023-04-24T07:05:50;573.72;;;532.95;;
53915;SDS011;39827;49.652;18.770;2023-04-24T07:08:16;173.00;;;162.43;;
53915;SDS011;39827;49.652;18.770;2023-04-24T07:10:42;174.98;;;163.18;;
53915;SDS011;39827;49.652;18.770;2023-04-24T07:13:09;149.73;;;140.45;;
53915;SDS011;39827;49.652;18.770;2023-04-24T07:15:34;168.65;;;158.23;;
53915;SDS011;39827;49.652;18.770;2023-04-24T07:18:00;168.05;;;157.77;;
53915;SDS011;39827;49.652;18.770;2023-04-24T07:20:25;182.13;;;171.07;;
53915;SDS011;39827;49.652;18.770;2023-04-24T07:22:51;167.15;;;157.18;;
53915;SDS011;39827;49.652;18.770;2023-04-24T07:25:18;165.05;;;154.55;;
53915;SDS011;39827;49.652;18.770;2023-04-24T07:27:44;162.15;;;152.43;;
53915;SDS011;39827;49.652;18.770;2023-04-24T07:30:10;206.90;;;194.73;;
53915;SDS011;39827;49.652;18.770;2023-04-24T07:32:36;205.27;;;192.90;;
53915;SDS011;39827;49.652;18.770;2023-04-24T07:35:01;204.25;;;191.73;;
53915;SDS011;39827;49.652;18.770;2023-04-24T07:37:27;208.98;;;196.43;;
53915;SDS011;39827;49.652;18.770;2023-04-24T07:39:53;201.90;;;189.63;;
53915;SDS011;39827;49.652;18.770;2023-04-24T07:42:19;214.48;;;201.70;;
53915;SDS011;39827;49.652;18.770;2023-04-24T07:44:45;183.68;;;172.55;;
53915;SDS011;39827;49.652;18.770;2023-04-24T07:47:12;215.05;;;202.38;;
53915;SDS011;39827;49.652;18.770;2023-04-24T07:49:39;193.50;;;181.88;;
53915;SDS011;39827;49.652;18.770;2023-04-24T07:52:06;222.82;;;208.35;;
53915;SDS011;39827;49.652;18.770;2023-04-24T07:54:31;187.30;;;176.02;;
53915;SDS011;39827;49.652;18.770;2023-04-24T07:56:57;240.52;;;225.63;;
53915;SDS011;39827;49.652;18.770;2023-04-24T07:59:22;259.38;;;239.40;;
53915;SDS011;39827;49.652;18.770;2023-04-24T08:01:48;219.63;;;206.00;;
53915;SDS011;39827;49.652;18.770;2023-04-24T08:04:13;257.90;;;241.38;;
53915;SDS011;39827;49.652;18.770;2023-04-24T08:06:39;479.83;;;445.85;;
53915;SDS011;39827;49.652;18.770;2023-04-24T08:09:04;583.20;;;540.47;;
53915;SDS011;39827;49.652;18.770;2023-04-24T08:11:30;552.50;;;511.73;;
53915;SDS011;39827;49.652;18.770;2023-04-24T08:13:55;545.33;;;504.60;;
53915;SDS011;39827;49.652;18.770;2023-04-24T08:16:21;502.23;;;465.50;;
53915;SDS011;39827;49.652;18.770;2023-04-24T08:18:48;506.85;;;469.25;;
53915;SDS011;39827;49.652;18.770;2023-04-24T08:21:14;515.80;;;476.65;;
53915;SDS011;39827;49.652;18.770;2023-04-24T08:23:42;627.15;;;579.92;;
53915;SDS011;39827;49.652;18.770;2023-04-24T08:26:08;545.10;;;504.20;;
53915;SDS011;39827;49.652;18.770;2023-04-24T08:28:33;620.75;;;574.90;;
53915;SDS011;39827;49.652;18.770;2023-04-24T08:30:58;657.53;;;608.33;;
53915;SDS011;39827;49.652;18.770;2023-04-24T08:33:24;648.30;;;599.63;;
53915;SDS011;39827;49.652;18.770;2023-04-24T08:35:49;598.83;;;552.60;;
53915;SDS011;39827;49.652;18.770;2023-04-24T08:38:15;695.83;;;642.55;;
53915;SDS011;39827;49.652;18.770;2023-04-24T08:40:42;742.53;;;685.60;;
53915;SDS011;39827;49.652;18.770;2023-04-24T08:43:08;695.13;;;642.20;;
53915;SDS011;39827;49.652;18.770;2023-04-24T08:45:35;750.97;;;693.35;;
53915;SDS011;39827;49.652;18.770;2023-04-24T08:48:01;774.83;;;715.83;;
53915;SDS011;39827;49.652;18.770;2023-04-24T08:50:27;750.80;;;693.72;;
53915;SDS011;39827;49.652;18.770;2023-04-24T08:52:54;796.15;;;732.92;;
53915;SDS011;39827;49.652;18.770;2023-04-24T08:55:20;751.33;;;692.88;;
53915;SDS011;39827;49.652;18.770;2023-04-24T08:57:50;705.22;;;649.28;;
53915;SDS011;39827;49.652;18.770;2023-04-24T09:00:18;712.08;;;657.80;;
53915;SDS011;39827;49.652;18.770;2023-04-24T09:02:44;780.10;;;717.92;;
53915;SDS011;39827;49.652;18.770;2023-04-24T09:05:12;725.30;;;669.60;;
53915;SDS011;39827;49.652;18.770;2023-04-24T09:07:38;563.17;;;519.85;;
53915;SDS011;39827;49.652;18.770;2023-04-24T09:10:04;676.30;;;624.63;;
53915;SDS011;39827;49.652;18.770;2023-04-24T09:12:31;578.58;;;536.20;;
53915;SDS011;39827;49.652;18.770;2023-04-24T09:14:58;662.63;;;612.92;;
53915;SDS011;39827;49.652;18.770;2023-04-24T09:17:25;547.17;;;506.85;;
53915;SDS011;39827;49.652;18.770;2023-04-24T09:19:52;612.47;;;567.80;;
53915;SDS011;39827;49.652;18.770;2023-04-24T09:22:17;512.25;;;475.38;;
53915;SDS011;39827;49.652;18.770;2023-04-24T09:24:43;631.33;;;585.17;;
53915;SDS011;39827;49.652;18.770;2023-04-24T09:27:10;494.13;;;458.15;;
53915;SDS011;39827;49.652;18.770;2023-04-24T09:29:37;532.92;;;494.33;;
53915;SDS011;39827;49.652;18.770;2023-04-24T09:32:18;547.28;;;506.48;;
53915;SDS011;39827;49.652;18.770;2023-04-24T09:34:47;734.30;;;677.95;;
53915;SDS011;39827;49.652;18.770;2023-04-24T09:37:28;303.05;;;282.45;;
53915;SDS011;39827;49.652;18.770;2023-04-24T09:42:36;135.18;;;126.07;;
53915;SDS011;39827;49.652;18.770;2023-04-24T09:45:02;294.30;;;274.13;;
53915;SDS011;39827;49.652;18.770;2023-04-24T09:47:28;334.13;;;311.35;;
53915;SDS011;39827;49.652;18.770;2023-04-24T09:50:08;305.20;;;284.52;;
53915;SDS011;39827;49.652;18.770;2023-04-24T09:52:45;333.77;;;310.98;;
53915;SDS011;39827;49.652;18.770;2023-04-24T09:55:19;461.48;;;428.02;;
53915;SDS011;39827;49.652;18.770;2023-04-24T09:57:52;559.85;;;518.50;;
53915;SDS011;39827;49.652;18.770;2023-04-24T10:00:31;709.88;;;655.17;;
53915;SDS011;39827;49.652;18.770;2023-04-24T10:03:01;630.42;;;578.15;;
53915;SDS011;39827;49.652;18.770;2023-04-24T10:05:29;827.13;;;759.72;;
53915;SDS011;39827;49.652;18.770;2023-04-24T10:08:07;825.78;;;758.58;;
53915;SDS011;39827;49.652;18.770;2023-04-24T10:10:37;835.05;;;766.40;;
53915;SDS011;39827;49.652;18.770;2023-04-24T10:13:04;835.17;;;768.22;;
53915;SDS011;39827;49.652;18.770;2023-04-24T10:15:30;845.25;;;778.60;;
53915;SDS011;39827;49.652;18.770;2023-04-24T10:17:55;731.60;;;674.88;;
53915;SDS011;39827;49.652;18.770;2023-04-24T10:20:25;582.60;;;534.97;;
53915;SDS011;39827;49.652;18.770;2023-04-24T10:22:52;491.02;;;452.75;;
53915;SDS011;39827;49.652;18.770;2023-04-24T10:25:26;412.02;;;382.50;;
53915;SDS011;39827;49.652;18.770;2023-04-24T10:27:53;499.27;;;464.83;;
53915;SDS011;39827;49.652;18.770;2023-04-24T10:30:24;332.00;;;308.73;;
53915;SDS011;39827;49.652;18.770;2023-04-24T10:32:51;343.13;;;319.05;;
53915;SDS011;39827;49.652;18.770;2023-04-24T10:35:17;222.40;;;205.20;;
53915;SDS011;39827;49.652;18.770;2023-04-24T10:37:51;274.38;;;253.90;;
53915;SDS011;39827;49.652;18.770;2023-04-24T10:40:31;229.27;;;211.50;;
53915;SDS011;39827;49.652;18.770;2023-04-24T10:42:58;245.45;;;227.43;;
53915;SDS011;39827;49.652;18.770;2023-04-24T10:45:26;253.98;;;234.75;;
53915;SDS011;39827;49.652;18.770;2023-04-24T10:47:53;200.00;;;183.93;;
53915;SDS011;39827;49.652;18.770;2023-04-24T10:50:23;181.02;;;166.55;;
53915;SDS011;39827;49.652;18.770;2023-04-24T10:52:51;223.57;;;205.48;;
53915;SDS011;39827;49.652;18.770;2023-04-24T10:55:39;160.52;;;147.68;;
53915;SDS011;39827;49.652;18.770;2023-04-24T10:58:08;156.75;;;144.55;;
53915;SDS011;39827;49.652;18.770;2023-04-24T11:00:33;232.90;;;213.32;;
53915;SDS011;39827;49.652;18.770;2023-04-24T11:03:03;273.48;;;250.85;;
53915;SDS011;39827;49.652;18.770;2023-04-24T11:05:49;159.45;;;147.57;;
53915;SDS011;39827;49.652;18.770;2023-04-24T11:13:25;714.50;;;653.03;;
53915;SDS011;39827;49.652;18.770;2023-04-24T11:18:41;748.45;;;686.55;;
53915;SDS011;39827;49.652;18.770;2023-04-24T11:21:15;561.95;;;518.28;;
53915;SDS011;39827;49.652;18.770;2023-04-24T11:23:42;572.53;;;528.10;;
53915;SDS011;39827;49.652;18.770;2023-04-24T11:26:11;594.38;;;546.42;;
53915;SDS011;39827;49.652;18.770;2023-04-24T11:28:43;532.28;;;489.92;;
53915;SDS011;39827;49.652;18.770;2023-04-24T11:34:10;533.30;;;494.20;;
53915;SDS011;39827;49.652;18.770;2023-04-24T11:36:39;519.55;;;480.60;;
53915;SDS011;39827;49.652;18.770;2023-04-24T11:39:05;504.70;;;465.75;;
53915;SDS011;39827;49.652;18.770;2023-04-24T11:41:31;560.55;;;517.53;;
53915;SDS011;39827;49.652;18.770;2023-04-24T11:43:59;312.85;;;285.20;;
53915;SDS011;39827;49.652;18.770;2023-04-24T11:46:29;314.48;;;287.73;;
53915;SDS011;39827;49.652;18.770;2023-04-24T11:48:56;315.98;;;289.23;;
53915;SDS011;39827;49.652;18.770;2023-04-24T11:51:22;425.33;;;386.63;;
53915;SDS011;39827;49.652;18.770;2023-04-24T11:53:50;308.92;;;283.17;;
53915;SDS011;39827;49.652;18.770;2023-04-24T11:56:20;217.55;;;199.65;;
53915;SDS011;39827;49.652;18.770;2023-04-24T11:58:47;285.15;;;262.80;;
53915;SDS011;39827;49.652;18.770;2023-04-24T12:01:13;312.67;;;286.75;;
53915;SDS011;39827;49.652;18.770;2023-04-24T12:03:38;230.88;;;211.90;;
53915;SDS011;39827;49.652;18.770;2023-04-24T12:06:08;280.42;;;256.80;;
53915;SDS011;39827;49.652;18.770;2023-04-24T12:08:34;289.27;;;265.50;;
53915;SDS011;39827;49.652;18.770;2023-04-24T12:11:01;249.52;;;229.82;;
53915;SDS011;39827;49.652;18.770;2023-04-24T12:13:28;267.00;;;247.43;;
53915;SDS011;39827;49.652;18.770;2023-04-24T12:15:53;276.23;;;255.63;;
53915;SDS011;39827;49.652;18.770;2023-04-24T12:18:22;293.17;;;271.48;;
53915;SDS011;39827;49.652;18.770;2023-04-24T12:20:48;304.88;;;281.98;;
53915;SDS011;39827;49.652;18.770;2023-04-24T12:23:13;298.88;;;275.75;;
53915;SDS011;39827;49.652;18.770;2023-04-24T12:25:39;337.85;;;311.90;;
53915;SDS011;39827;49.652;18.770;2023-04-24T12:30:32;309.45;;;286.02;;
53915;SDS011;39827;49.652;18.770;2023-04-24T12:32:59;343.45;;;317.20;;
53915;SDS011;39827;49.652;18.770;2023-04-24T12:35:27;299.55;;;277.30;;
53915;SDS011;39827;49.652;18.770;2023-04-24T12:37:53;350.58;;;322.80;;
53915;SDS011;39827;49.652;18.770;2023-04-24T12:40:19;322.92;;;297.10;;
53915;SDS011;39827;49.652;18.770;2023-04-24T12:42:49;363.02;;;334.83;;
53915;SDS011;39827;49.652;18.770;2023-04-24T12:45:16;300.42;;;277.73;;
53915;SDS011;39827;49.652;18.770;2023-04-24T12:47:43;303.13;;;280.13;;
53915;SDS011;39827;49.652;18.770;2023-04-24T12:50:10;387.95;;;357.52;;
53915;SDS011;39827;49.652;18.770;2023-04-24T12:52:36;314.70;;;288.83;;
53915;SDS011;39827;49.652;18.770;2023-04-24T12:55:03;312.63;;;289.48;;
53915;SDS011;39827;49.652;18.770;2023-04-24T12:57:29;403.80;;;371.63;;
53915;SDS011;39827;49.652;18.770;2023-04-24T12:59:56;315.45;;;290.77;;
53915;SDS011;39827;49.652;18.770;2023-04-24T13:02:23;363.38;;;334.52;;
53915;SDS011;39827;49.652;18.770;2023-04-24T13:04:55;365.58;;;336.70;;
53915;SDS011;39827;49.652;18.770;2023-04-24T13:07:20;355.70;;;327.75;;
53915;SDS011;39827;49.652;18.770;2023-04-24T13:09:47;352.60;;;324.98;;
53915;SDS011;39827;49.652;18.770;2023-04-24T13:12:13;387.35;;;356.80;;
53915;SDS011;39827;49.652;18.770;2023-04-24T13:14:39;350.58;;;323.15;;
53915;SDS011;39827;49.652;18.770;2023-04-24T13:17:04;365.10;;;337.10;;
53915;SDS011;39827;49.652;18.770;2023-04-24T13:19:34;377.08;;;347.35;;
53915;SDS011;39827;49.652;18.770;2023-04-24T13:22:01;314.52;;;289.33;;
53915;SDS011;39827;49.652;18.770;2023-04-24T13:24:27;286.75;;;263.40;;
53915;SDS011;39827;49.652;18.770;2023-04-24T13:26:52;242.75;;;223.05;;
53915;SDS011;39827;49.652;18.770;2023-04-24T13:29:18;344.52;;;317.90;;
53915;SDS011;39827;49.652;18.770;2023-04-24T13:31:45;294.63;;;271.30;;
53915;SDS011;39827;49.652;18.770;2023-04-24T13:34:12;321.10;;;295.15;;
53915;SDS011;39827;49.652;18.770;2023-04-24T13:36:37;339.13;;;312.45;;
53915;SDS011;39827;49.652;18.770;2023-04-24T13:39:03;256.80;;;235.88;;
53915;SDS011;39827;49.652;18.770;2023-04-24T13:41:30;332.10;;;305.88;;
53915;SDS011;39827;49.652;18.770;2023-04-24T13:43:57;299.30;;;275.02;;
53915;SDS011;39827;49.652;18.770;2023-04-24T13:46:22;229.77;;;211.00;;
53915;SDS011;39827;49.652;18.770;2023-04-24T13:48:47;274.92;;;251.00;;
53915;SDS011;39827;49.652;18.770;2023-04-24T13:51:13;389.23;;;357.67;;
53915;SDS011;39827;49.652;18.770;2023-04-24T13:53:38;395.20;;;363.67;;
53915;SDS011;39827;49.652;18.770;2023-04-24T13:56:04;317.02;;;292.33;;